createdAt,value
2023-05-10T00:01:43.738Z,60.26
2023-05-10T00:04:11.681Z,60.40
2023-05-10T00:06:40.039Z,61.71
2023-05-10T00:09:10.119Z,60.75
2023-05-10T00:11:38.044Z,61.23
2023-05-10T00:14:08.480Z,62.45
2023-05-10T00:16:36.474Z,61.98
2023-05-10T00:19:04.578Z,62.10
2023-05-10T00:21:33.222Z,61.60
2023-05-10T00:24:01.180Z,62.08
2023-05-10T00:26:30.478Z,61.63
2023-05-10T00:28:59.509Z,61.90
2023-05-10T00:31:27.528Z,62.85
2023-05-10T00:33:55.552Z,63.27
2023-05-10T00:36:23.428Z,62.46
2023-05-10T00:38:51.383Z,63.49
2023-05-10T00:41:19.530Z,64.71
2023-05-10T00:43:50.783Z,64.43
2023-05-10T00:46:18.820Z,64.26
2023-05-10T00:48:47.082Z,64.42
2023-05-10T00:51:15.716Z,65.10
2023-05-10T00:53:44.466Z,66.39
2023-05-10T00:56:12.497Z,67.54
2023-05-10T00:58:40.632Z,67.74
2023-05-10T01:01:11.007Z,69.09
2023-05-10T01:03:39.510Z,68.31
2023-05-10T01:06:08.075Z,69.15
2023-05-10T01:08:36.216Z,69.97
2023-05-10T01:11:04.277Z,69.64
2023-05-10T01:13:35.240Z,70.77
2023-05-10T01:16:04.238Z,70.66
2023-05-10T01:18:36.583Z,70.37
2023-05-10T01:21:15.487Z,69.96
2023-05-10T01:24:06.988Z,71.84
2023-05-10T01:27:13.504Z,74.30
2023-05-10T01:30:17.063Z,74.71
2023-05-10T01:32:51.365Z,74.75
2023-05-10T01:35:25.076Z,74.02
2023-05-10T01:38:06.481Z,74.45
2023-05-10T01:40:39.628Z,74.52
2023-05-10T01:43:21.720Z,74.92
2023-05-10T01:46:12.034Z,75.21
2023-05-10T01:48:49.397Z,75.02
2023-05-10T01:51:21.782Z,75.39
2023-05-10T01:53:50.736Z,75.83
2023-05-10T01:56:22.267Z,74.49
2023-05-10T01:58:51.907Z,75.14
2023-05-10T02:01:21.484Z,75.01
2023-05-10T02:03:52.787Z,74.82
2023-05-10T02:06:22.780Z,76.03
2023-05-10T02:08:53.516Z,75.59
2023-05-10T02:11:22.985Z,75.27
2023-05-10T02:13:53.912Z,76.32
2023-05-10T02:16:31.596Z,75.31
2023-05-10T02:19:03.359Z,76.11
2023-05-10T02:21:33.728Z,75.21
2023-05-10T02:24:05.551Z,76.59
2023-05-10T02:26:34.879Z,76.95
2023-05-10T02:29:05.117Z,76.40
2023-05-10T02:31:34.982Z,78.09
2023-05-10T02:34:06.422Z,77.29
2023-05-10T02:36:35.228Z,76.95
2023-05-10T02:39:04.362Z,77.12
2023-05-10T02:41:34.748Z,76.87
2023-05-10T02:44:04.743Z,77.10
2023-05-10T02:46:32.981Z,77.60
2023-05-10T02:49:01.112Z,77.54
2023-05-10T02:51:34.530Z,79.07
2023-05-10T02:54:11.390Z,80.01
2023-05-10T02:56:44.478Z,78.91
2023-05-10T02:59:12.411Z,78.64
2023-05-10T03:01:40.637Z,80.58
2023-05-10T03:04:08.713Z,80.78
2023-05-10T03:06:38.798Z,80.94
2023-05-10T03:09:08.762Z,79.60
2023-05-10T03:11:50.393Z,78.36
2023-05-10T03:14:30.863Z,79.00
2023-05-10T03:17:06.131Z,79.50
2023-05-10T03:19:42.009Z,79.91
2023-05-10T03:22:13.087Z,81.75
2023-05-10T03:24:43.176Z,80.21
2023-05-10T03:27:12.484Z,79.02
2023-05-10T03:29:41.593Z,79.37
2023-05-10T03:32:09.686Z,79.15
2023-05-10T03:34:43.717Z,80.23
2023-05-10T03:37:13.919Z,81.57
2023-05-10T03:39:42.571Z,80.92
2023-05-10T03:42:12.970Z,81.04
2023-05-10T03:44:41.353Z,80.21
2023-05-10T03:47:10.522Z,80.59
2023-05-10T03:49:38.546Z,80.45
2023-05-10T03:52:07.511Z,81.31
2023-05-10T03:54:38.241Z,79.69
2023-05-10T03:57:06.862Z,79.64
2023-05-10T03:59:34.820Z,79.34
2023-05-10T04:02:02.864Z,80.46
2023-05-10T04:04:31.535Z,78.88
2023-05-10T04:07:00.135Z,79.33
2023-05-10T04:09:28.030Z,79.46
2023-05-10T04:11:57.266Z,78.29
2023-05-10T04:14:25.558Z,78.67
2023-05-10T04:16:53.617Z,78.88
2023-05-10T04:19:21.628Z,78.55
2023-05-10T04:21:49.553Z,77.79
2023-05-10T04:24:17.406Z,76.57
2023-05-10T04:26:45.390Z,76.70
2023-05-10T04:29:14.646Z,75.53
2023-05-10T04:31:42.648Z,75.47
2023-05-10T04:34:10.573Z,74.89
2023-05-10T04:36:38.453Z,74.95
2023-05-10T04:39:06.604Z,73.89
2023-05-10T04:41:34.518Z,73.77
2023-05-10T04:44:02.546Z,73.98
2023-05-10T04:46:31.997Z,74.62
2023-05-10T04:49:00.046Z,73.97
2023-05-10T04:51:27.927Z,72.86
2023-05-10T04:54:05.424Z,72.46
2023-05-10T04:56:34.829Z,72.03
2023-05-10T04:59:02.766Z,72.41
2023-05-10T05:01:32.308Z,71.92
2023-05-10T05:04:00.725Z,72.00
2023-05-10T05:06:28.744Z,70.89
2023-05-10T05:08:56.710Z,70.74
2023-05-10T05:11:24.652Z,71.06
2023-05-10T05:13:52.554Z,70.09
2023-05-10T05:16:22.546Z,70.14
2023-05-10T05:18:52.005Z,69.82
2023-05-10T05:21:21.330Z,70.12
2023-05-10T05:23:49.298Z,69.61
2023-05-10T05:26:17.280Z,70.16
2023-05-10T05:28:45.257Z,67.93
2023-05-10T05:31:13.229Z,67.94
2023-05-10T05:33:41.323Z,68.10
2023-05-10T05:36:11.675Z,67.13
2023-05-10T05:38:39.581Z,67.18
2023-05-10T05:41:07.551Z,67.00
2023-05-10T05:43:38.048Z,66.62
2023-05-10T05:46:06.734Z,66.47
2023-05-10T05:48:34.781Z,65.59
2023-05-10T05:51:02.844Z,65.75
2023-05-10T05:53:33.344Z,64.93
2023-05-10T05:56:01.244Z,64.19
2023-05-10T05:58:29.670Z,63.44
2023-05-10T06:00:58.249Z,63.37
2023-05-10T06:03:26.455Z,62.88
2023-05-10T06:05:54.619Z,62.26
2023-05-10T06:08:22.548Z,62.16
2023-05-10T06:10:51.942Z,61.50
2023-05-10T06:13:19.964Z,61.68
2023-05-10T06:15:47.873Z,60.31
2023-05-10T06:18:15.838Z,60.46
2023-05-10T06:20:44.060Z,59.85
2023-05-10T06:23:12.097Z,59.50
2023-05-10T06:25:40.106Z,58.61
2023-05-10T06:28:09.484Z,57.79
2023-05-10T06:30:39.009Z,58.12
2023-05-10T06:33:07.022Z,57.70
2023-05-10T06:35:35.050Z,57.30
2023-05-10T06:38:03.017Z,56.96
2023-05-10T06:40:30.940Z,57.08
2023-05-10T06:42:58.851Z,56.77
2023-05-10T06:45:28.242Z,57.40
2023-05-10T06:47:56.325Z,56.77
2023-05-10T06:50:24.234Z,56.30
2023-05-10T06:52:53.187Z,56.53
2023-05-10T06:55:21.374Z,56.68
2023-05-10T06:57:49.515Z,56.50
2023-05-10T07:00:18.745Z,56.02
2023-05-10T07:02:49.472Z,55.63
2023-05-10T07:05:17.760Z,55.89
2023-05-10T07:07:45.945Z,55.89
2023-05-10T07:10:14.288Z,56.04
2023-05-10T07:12:42.472Z,55.67
2023-05-10T07:15:11.289Z,56.05
2023-05-10T07:17:39.286Z,55.50
2023-05-10T07:20:10.759Z,55.42
2023-05-10T07:22:38.676Z,55.31
2023-05-10T07:25:07.550Z,55.24
2023-05-10T07:27:35.551Z,55.19
2023-05-10T07:30:03.543Z,55.56
2023-05-10T07:32:32.747Z,55.03
2023-05-10T07:35:01.095Z,54.98
2023-05-10T07:37:31.319Z,54.05
2023-05-10T07:39:59.239Z,54.87
2023-05-10T07:42:27.160Z,55.06
2023-05-10T07:44:55.186Z,55.08
2023-05-10T07:47:23.183Z,54.49
2023-05-10T07:49:51.257Z,53.79
2023-05-10T07:52:21.212Z,53.88
2023-05-10T07:54:51.844Z,54.31
2023-05-10T07:57:20.037Z,53.99
2023-05-10T07:59:48.457Z,53.75
2023-05-10T08:02:16.535Z,53.09
2023-05-10T08:04:44.483Z,52.77
2023-05-10T08:07:12.733Z,52.22
2023-05-10T08:09:40.705Z,52.96
2023-05-10T08:12:10.031Z,52.74
2023-05-10T08:14:38.651Z,52.23
2023-05-10T08:17:09.146Z,51.81
2023-05-10T08:19:37.314Z,51.97
2023-05-10T08:22:06.557Z,52.42
2023-05-10T08:24:35.713Z,51.28
2023-05-10T08:27:04.008Z,51.00
2023-05-10T08:32:06.766Z,50.93
2023-05-10T08:34:34.830Z,50.38
2023-05-10T08:37:02.787Z,50.71
2023-05-10T08:39:32.342Z,50.81
2023-05-10T08:42:04.410Z,50.19
2023-05-10T08:44:34.689Z,49.91
2023-05-10T08:47:06.186Z,49.33
2023-05-10T08:49:35.663Z,49.92
2023-05-10T08:52:06.318Z,48.91
2023-05-10T08:54:35.075Z,48.61
2023-05-10T08:57:03.287Z,48.38
2023-05-10T08:59:32.944Z,47.98
2023-05-10T09:02:01.754Z,48.27
2023-05-10T09:04:31.495Z,49.01
2023-05-10T09:06:59.566Z,48.00
2023-05-10T09:09:27.856Z,47.48
2023-05-10T09:11:56.470Z,47.22
2023-05-10T09:14:26.898Z,47.27
2023-05-10T09:16:56.410Z,46.99
2023-05-10T09:19:24.453Z,46.98
2023-05-10T09:21:52.455Z,46.23
2023-05-10T09:24:20.387Z,46.46
2023-05-10T09:26:50.471Z,46.60
2023-05-10T09:29:18.624Z,46.02
2023-05-10T09:31:48.764Z,46.32
2023-05-10T09:34:22.707Z,45.52
2023-05-10T09:36:55.695Z,45.87
2023-05-10T09:39:32.730Z,46.23
2023-05-10T09:42:01.775Z,44.72
2023-05-10T09:44:29.824Z,45.19
2023-05-10T09:46:58.018Z,44.61
2023-05-10T09:49:27.392Z,44.95
2023-05-10T09:52:05.913Z,44.61
2023-05-10T09:54:34.869Z,44.14
2023-05-10T09:57:03.548Z,44.02
2023-05-10T09:59:32.111Z,43.38
2023-05-10T10:02:02.122Z,43.73
2023-05-10T10:04:32.677Z,42.59
2023-05-10T10:07:01.915Z,42.39
2023-05-10T10:09:32.450Z,42.28
2023-05-10T10:12:01.454Z,42.72
2023-05-10T10:14:29.767Z,41.72
2023-05-10T10:17:07.606Z,41.57
2023-05-10T10:19:38.464Z,40.45
2023-05-10T10:22:06.978Z,40.41
2023-05-10T10:24:35.198Z,40.02
2023-05-10T10:27:11.202Z,39.37
2023-05-10T10:29:46.773Z,38.58
2023-05-10T10:32:26.711Z,38.11
2023-05-10T10:34:57.074Z,38.03
2023-05-10T10:37:25.041Z,37.71
2023-05-10T10:39:53.025Z,37.50
2023-05-10T10:42:47.928Z,36.45
2023-05-10T10:45:16.225Z,36.12
2023-05-10T10:47:44.866Z,36.65
2023-05-10T10:50:14.581Z,36.33
2023-05-10T10:52:42.916Z,37.09
2023-05-10T10:55:12.645Z,37.07
2023-05-10T10:57:49.411Z,36.51
2023-05-10T11:00:23.974Z,35.18
2023-05-10T11:02:53.697Z,36.19
2023-05-10T11:05:47.199Z,34.82
2023-05-10T11:08:20.684Z,33.40
2023-05-10T11:11:04.376Z,32.31
2023-05-10T11:13:34.195Z,30.68
2023-05-10T11:16:13.335Z,31.06
2023-05-10T11:18:41.903Z,29.95
2023-05-10T11:21:12.483Z,28.96
2023-05-10T11:23:51.806Z,27.59
2023-05-10T11:26:24.261Z,28.16
2023-05-10T11:28:52.537Z,27.02
2023-05-10T11:31:21.730Z,26.08
2023-05-10T11:33:51.503Z,26.08
2023-05-10T11:36:22.699Z,27.50
2023-05-10T11:38:51.357Z,26.52
2023-05-10T11:41:22.739Z,25.93
2023-05-10T11:43:52.994Z,26.43
2023-05-10T11:46:22.571Z,26.05
2023-05-10T11:48:52.557Z,26.72
2023-05-10T11:51:24.281Z,24.71
2023-05-10T11:53:53.261Z,23.31
2023-05-10T11:56:21.867Z,25.48
2023-05-10T11:58:56.390Z,24.81
2023-05-10T12:01:24.869Z,25.31
2023-05-10T12:03:54.813Z,24.68
2023-05-10T12:06:28.299Z,24.44
2023-05-10T12:08:56.279Z,22.49
2023-05-10T12:11:27.388Z,24.19
2023-05-10T12:13:56.105Z,23.98
2023-05-10T12:16:25.213Z,25.18
2023-05-10T12:18:57.417Z,23.29
2023-05-10T12:21:27.728Z,24.37
2023-05-10T12:23:57.376Z,24.63
2023-05-10T12:26:27.350Z,27.29
2023-05-10T12:28:55.572Z,27.42
2023-05-10T12:31:23.584Z,27.26
2023-05-10T12:33:51.497Z,27.99
2023-05-10T12:36:28.517Z,29.34
2023-05-10T12:39:05.831Z,29.61
2023-05-10T12:41:33.819Z,27.88
2023-05-10T12:44:04.399Z,27.73
2023-05-10T12:46:32.718Z,28.08
2023-05-10T12:49:08.631Z,26.40
2023-05-10T12:51:38.667Z,26.56
2023-05-10T12:54:06.757Z,25.73
2023-05-10T12:56:34.719Z,25.13
2023-05-10T12:59:02.614Z,23.69
2023-05-10T13:01:30.610Z,22.55
2023-05-10T13:03:58.561Z,24.01
2023-05-10T13:06:26.505Z,22.37
2023-05-10T13:08:55.805Z,23.61
2023-05-10T13:11:23.818Z,23.08
2023-05-10T13:13:51.744Z,22.08
2023-05-10T13:16:19.809Z,22.45
2023-05-10T13:18:50.114Z,23.52
2023-05-10T13:21:18.110Z,24.56
2023-05-10T13:23:48.562Z,25.25
2023-05-10T13:26:17.907Z,25.86
2023-05-10T13:28:46.891Z,26.92
2023-05-10T13:31:14.844Z,26.79
2023-05-10T13:33:43.187Z,27.46
2023-05-10T13:36:12.296Z,27.26
2023-05-10T13:38:40.237Z,27.28
2023-05-10T13:41:08.278Z,25.40
2023-05-10T13:43:38.046Z,26.97
2023-05-10T13:46:06.205Z,28.55
2023-05-10T13:48:34.860Z,28.09
2023-05-10T13:51:04.364Z,27.40
2023-05-10T13:53:32.313Z,27.99
2023-05-10T13:56:00.213Z,27.76
2023-05-10T13:58:28.135Z,27.69
2023-05-10T14:00:58.142Z,27.39
2023-05-10T14:03:26.429Z,28.24
2023-05-10T14:05:54.382Z,27.87
2023-05-10T14:08:22.595Z,27.32
2023-05-10T14:10:51.639Z,28.20
2023-05-10T14:13:19.565Z,27.17
2023-05-10T14:15:47.498Z,27.04
2023-05-10T14:18:16.858Z,27.63
2023-05-10T14:20:44.842Z,27.08
2023-05-10T14:23:13.382Z,27.61
2023-05-10T14:25:42.205Z,27.13
2023-05-10T14:28:10.265Z,28.15
2023-05-10T14:30:38.351Z,26.47
2023-05-10T14:33:08.278Z,26.16
2023-05-10T14:35:38.610Z,25.45
2023-05-10T14:38:06.639Z,25.63
2023-05-10T14:40:34.648Z,25.88
2023-05-10T14:43:02.678Z,26.65
2023-05-10T14:45:30.848Z,27.15
2023-05-10T14:48:00.125Z,27.13
2023-05-10T14:50:36.537Z,27.46
2023-05-10T14:53:06.614Z,27.25
2023-05-10T14:55:35.663Z,27.06
2023-05-10T14:58:04.339Z,27.16
2023-05-10T15:00:33.616Z,25.90
2023-05-10T15:03:02.344Z,25.83
2023-05-10T15:05:30.908Z,26.75
2023-05-10T15:07:59.522Z,26.78
2023-05-10T15:10:28.835Z,26.21
2023-05-10T15:12:57.050Z,27.48
2023-05-10T15:15:25.119Z,26.24
2023-05-10T15:17:53.124Z,25.85
2023-05-10T15:20:21.132Z,25.93
2023-05-10T15:22:49.077Z,25.62
2023-05-10T15:25:17.385Z,26.56
2023-05-10T15:27:47.571Z,26.65
2023-05-10T15:30:15.973Z,26.91
2023-05-10T15:32:44.089Z,27.55
2023-05-10T15:35:12.631Z,28.86
2023-05-10T15:37:40.553Z,28.52
2023-05-10T15:40:09.232Z,29.42
2023-05-10T15:42:37.150Z,28.91
2023-05-10T15:45:10.035Z,28.71
2023-05-10T15:47:40.115Z,30.14
2023-05-10T15:50:08.536Z,28.14
2023-05-10T15:52:37.063Z,29.42
2023-05-10T15:55:12.469Z,29.33
2023-05-10T15:57:41.603Z,29.53
2023-05-10T16:00:13.193Z,29.73
2023-05-10T16:02:41.405Z,28.93
2023-05-10T16:05:10.817Z,29.41
2023-05-10T16:07:42.053Z,28.97
2023-05-10T16:10:11.748Z,29.12
2023-05-10T16:12:40.112Z,29.18
2023-05-10T16:15:09.882Z,29.81
2023-05-10T16:17:39.320Z,29.09
2023-05-10T16:20:08.679Z,29.71
2023-05-10T16:22:36.781Z,29.94
2023-05-10T16:25:05.259Z,30.30
2023-05-10T16:27:33.461Z,30.85
2023-05-10T16:30:01.657Z,30.93
2023-05-10T16:32:29.805Z,31.04
2023-05-10T16:35:00.126Z,31.47
2023-05-10T16:37:28.639Z,31.93
2023-05-10T16:39:56.571Z,32.15
2023-05-10T16:42:25.980Z,31.87
2023-05-10T16:44:55.395Z,32.60
2023-05-10T16:47:26.475Z,35.96
2023-05-10T16:49:54.410Z,41.60
2023-05-10T16:52:23.814Z,42.59
2023-05-10T16:54:51.739Z,44.98
2023-05-10T16:57:19.711Z,46.09
2023-05-10T16:59:47.986Z,46.99
2023-05-10T17:02:16.845Z,48.70
2023-05-10T17:04:44.769Z,48.74
2023-05-10T17:07:13.169Z,50.07
2023-05-10T17:09:43.301Z,50.83
2023-05-10T17:12:12.471Z,52.17
2023-05-10T17:14:40.977Z,52.74
2023-05-10T17:17:10.670Z,53.30
2023-05-10T17:19:38.565Z,54.60
2023-05-10T17:22:06.591Z,55.74
2023-05-10T17:24:34.504Z,55.37
2023-05-10T17:27:04.358Z,56.97
2023-05-10T17:29:32.509Z,57.32
2023-05-10T17:32:00.763Z,57.08
2023-05-10T17:34:28.938Z,57.87
2023-05-10T17:36:57.379Z,59.21
2023-05-10T17:39:25.340Z,60.18
2023-05-10T17:41:53.258Z,60.61
2023-05-10T17:44:22.904Z,60.68
2023-05-10T17:46:50.840Z,62.63
2023-05-10T17:49:18.843Z,62.71
2023-05-10T17:51:48.018Z,61.83
2023-05-10T17:54:16.218Z,62.55
2023-05-10T17:56:44.154Z,63.74
2023-05-10T17:59:12.145Z,63.66
2023-05-10T18:01:41.668Z,66.19
2023-05-10T18:04:09.694Z,67.60
2023-05-10T18:06:38.125Z,68.82
2023-05-10T18:09:07.262Z,69.94
2023-05-10T18:11:36.774Z,70.74
2023-05-10T18:14:04.947Z,70.94
2023-05-10T18:16:32.904Z,70.83
2023-05-10T18:19:02.351Z,71.79
2023-05-10T18:21:31.256Z,72.93
2023-05-10T18:23:59.219Z,73.14
2023-05-10T18:26:27.731Z,72.61
2023-05-10T18:28:55.673Z,73.43
2023-05-10T18:31:23.982Z,73.91
2023-05-10T18:33:52.246Z,74.70
2023-05-10T18:36:23.637Z,74.95
2023-05-10T18:38:51.589Z,75.38
2023-05-10T18:41:19.608Z,75.35
2023-05-10T18:43:47.570Z,76.15
2023-05-10T18:46:16.022Z,76.05
2023-05-10T18:48:44.058Z,76.62
2023-05-10T18:51:12.470Z,76.19
2023-05-10T18:53:41.892Z,77.10
2023-05-10T18:56:10.025Z,77.12
2023-05-10T18:58:38.362Z,78.46
2023-05-10T19:01:06.446Z,78.47
2023-05-10T19:03:34.360Z,79.14
2023-05-10T19:06:02.330Z,79.23
2023-05-10T19:08:30.383Z,79.75
2023-05-10T19:10:59.766Z,80.97
2023-05-10T19:13:30.212Z,82.51
2023-05-10T19:16:05.909Z,83.08
2023-05-10T19:18:34.386Z,85.55
2023-05-10T19:21:04.513Z,86.18
2023-05-10T19:23:33.104Z,85.48
2023-05-10T19:26:02.700Z,86.54
2023-05-10T19:28:30.681Z,85.30
2023-05-10T19:30:58.846Z,86.57
2023-05-10T19:33:26.901Z,86.11
2023-05-10T19:35:56.304Z,88.48
2023-05-10T19:38:25.109Z,88.98
2023-05-10T19:40:57.918Z,90.55
2023-05-10T19:43:28.274Z,91.19
2023-05-10T19:45:56.708Z,90.13
2023-05-10T19:48:24.742Z,91.42
2023-05-10T19:50:52.852Z,92.36
2023-05-10T19:53:21.526Z,90.77
2023-05-10T19:55:49.602Z,92.43
2023-05-10T19:58:17.852Z,93.72
2023-05-10T20:00:47.260Z,94.31
2023-05-10T20:03:15.311Z,95.12
2023-05-10T20:05:43.294Z,94.93
2023-05-10T20:08:11.496Z,95.85
2023-05-10T20:10:39.481Z,96.60
2023-05-10T20:13:07.752Z,96.54
2023-05-10T20:15:35.766Z,96.30
2023-05-10T20:18:05.473Z,96.13
2023-05-10T20:20:33.459Z,97.31
2023-05-10T20:23:01.494Z,97.40
2023-05-10T20:25:29.671Z,97.10
2023-05-10T20:27:57.757Z,98.49
2023-05-10T20:30:25.736Z,98.62
2023-05-10T20:32:53.812Z,97.32
2023-05-10T20:35:25.648Z,98.31
2023-05-10T20:37:53.912Z,99.84
2023-05-10T20:40:22.031Z,99.90
2023-05-10T20:42:51.983Z,97.47
2023-05-10T20:45:20.003Z,98.59
2023-05-10T20:47:48.104Z,97.74
2023-05-10T20:50:16.305Z,98.46
2023-05-10T20:52:45.731Z,100.00
2023-05-10T20:55:13.617Z,100.00
2023-05-10T20:57:41.613Z,100.00
2023-05-10T21:00:10.714Z,100.00
2023-05-10T21:02:38.693Z,100.00
2023-05-10T21:05:07.489Z,100.00
2023-05-10T21:07:35.391Z,100.00
2023-05-10T21:10:05.097Z,100.00
2023-05-10T21:12:33.179Z,100.00
2023-05-10T21:15:01.201Z,100.00
2023-05-10T21:17:35.909Z,100.00
2023-05-10T21:20:10.161Z,100.00
2023-05-10T21:22:47.516Z,100.00
2023-05-10T21:25:42.371Z,100.00
2023-05-10T21:28:18.752Z,100.00
2023-05-10T21:31:08.786Z,100.00
2023-05-10T21:33:41.918Z,100.00
2023-05-10T21:36:10.075Z,100.00
2023-05-10T21:38:38.126Z,100.00
2023-05-10T21:41:09.697Z,100.00
2023-05-10T21:43:37.832Z,100.00
2023-05-10T21:46:07.160Z,100.00
2023-05-10T21:48:35.268Z,100.00
2023-05-10T21:51:03.559Z,100.00
2023-05-10T21:53:31.690Z,100.00
2023-05-10T21:55:59.561Z,100.00
2023-05-10T21:58:29.939Z,100.00
2023-05-10T22:00:57.968Z,100.00
2023-05-10T22:03:26.425Z,100.00
2023-05-10T22:05:54.385Z,100.00
2023-05-10T22:08:22.356Z,100.00
2023-05-10T22:10:50.328Z,100.00
2023-05-10T22:13:18.293Z,100.00
2023-05-10T22:15:47.687Z,100.00
2023-05-10T22:18:15.607Z,100.00
2023-05-10T22:20:46.372Z,100.00
2023-05-10T22:23:14.450Z,100.00
2023-05-10T22:25:42.595Z,100.00
2023-05-10T22:28:11.445Z,100.00
2023-05-10T22:30:39.404Z,100.00
2023-05-10T22:33:08.724Z,100.00
2023-05-10T22:35:36.825Z,100.00
2023-05-10T22:38:04.965Z,100.00
2023-05-10T22:40:33.029Z,100.00
2023-05-10T22:43:03.652Z,100.00
2023-05-10T22:45:32.443Z,100.00
2023-05-10T22:48:05.051Z,100.00
2023-05-10T22:50:36.768Z,100.00
2023-05-10T22:53:04.966Z,100.00
2023-05-10T22:55:33.030Z,100.00
2023-05-10T22:58:01.030Z,100.00
2023-05-10T23:00:28.917Z,100.00
2023-05-10T23:02:57.440Z,100.00
2023-05-10T23:05:25.358Z,100.00
2023-05-10T23:07:55.631Z,100.00
2023-05-10T23:10:23.767Z,100.00
2023-05-10T23:12:51.669Z,100.00
2023-05-10T23:15:19.747Z,100.00
2023-05-10T23:17:47.699Z,100.00
2023-05-10T23:20:16.168Z,100.00
2023-05-10T23:22:44.864Z,100.00
2023-05-10T23:25:14.555Z,100.00
2023-05-10T23:27:42.608Z,100.00
2023-05-10T23:30:11.504Z,100.00
2023-05-10T23:32:39.552Z,100.00
2023-05-10T23:35:08.857Z,100.00
2023-05-10T23:37:37.783Z,100.00
2023-05-10T23:40:06.673Z,100.00
2023-05-10T23:42:36.679Z,100.00
2023-05-10T23:45:05.167Z,100.00
2023-05-10T23:47:33.125Z,100.00
2023-05-10T23:50:01.426Z,100.00
2023-05-10T23:52:29.382Z,100.00
2023-05-10T23:54:57.418Z,100.00
2023-05-10T23:57:25.705Z,100.00
2023-05-10T23:59:55.322Z,100.00
